createdAt,value
2022-12-15T00:00:53.910Z,2.22
2022-12-15T00:02:33.624Z,2.23
2022-12-15T00:04:12.798Z,2.24
2022-12-15T00:05:52.508Z,2.30
2022-12-15T00:07:31.899Z,2.30
2022-12-15T00:09:14.233Z,2.30
2022-12-15T00:10:54.326Z,2.23
2022-12-15T00:12:33.693Z,2.24
2022-12-15T00:14:13.052Z,2.30
2022-12-15T00:15:52.613Z,2.31
2022-12-15T00:17:31.858Z,2.32
2022-12-15T00:19:11.291Z,2.32
2022-12-15T00:20:50.444Z,2.30
2022-12-15T00:22:29.974Z,2.24
2022-12-15T00:24:10.003Z,2.24
2022-12-15T00:25:49.186Z,2.28
2022-12-15T00:27:28.656Z,2.34
2022-12-15T00:29:08.822Z,2.35
2022-12-15T00:30:50.086Z,2.38
2022-12-15T00:32:29.898Z,2.42
2022-12-15T00:34:09.286Z,2.40
2022-12-15T00:35:49.025Z,2.38
2022-12-15T00:37:28.529Z,2.42
2022-12-15T00:38:49.131Z,2.43
2022-12-15T00:40:10.459Z,2.49
2022-12-15T00:41:31.201Z,2.50
2022-12-15T00:42:51.772Z,2.52
2022-12-15T00:44:15.830Z,2.52
2022-12-15T00:45:58.481Z,2.48
2022-12-15T00:47:19.233Z,2.53
2022-12-15T00:48:40.619Z,2.52
2022-12-15T00:50:20.045Z,2.44
2022-12-15T00:51:59.507Z,2.46
2022-12-15T00:53:42.430Z,2.50
2022-12-15T00:55:22.537Z,2.53
2022-12-15T00:57:01.860Z,2.53
2022-12-15T00:58:41.446Z,2.55
2022-12-15T01:00:21.235Z,2.56
2022-12-15T01:02:00.587Z,2.59
2022-12-15T01:03:42.202Z,2.60
2022-12-15T01:05:21.366Z,2.52
2022-12-15T01:07:00.874Z,2.54
2022-12-15T01:08:40.852Z,2.59
2022-12-15T01:10:19.782Z,2.58
2022-12-15T01:11:59.732Z,2.52
2022-12-15T01:13:39.111Z,2.55
2022-12-15T01:15:18.658Z,2.60
2022-12-15T01:16:57.859Z,2.58
2022-12-15T01:18:37.177Z,2.61
2022-12-15T01:20:16.483Z,2.62
2022-12-15T01:21:37.429Z,2.61
2022-12-15T01:22:58.009Z,2.64
2022-12-15T01:24:18.614Z,2.65
2022-12-15T01:25:39.761Z,2.65
2022-12-15T01:27:00.305Z,2.59
2022-12-15T01:28:21.887Z,2.54
2022-12-15T01:29:42.841Z,2.58
2022-12-15T01:31:09.473Z,2.55
2022-12-15T01:32:31.188Z,2.54
2022-12-15T01:33:55.615Z,2.53
2022-12-15T01:35:17.730Z,2.57
2022-12-15T01:36:38.632Z,2.55
2022-12-15T01:37:59.179Z,2.51
2022-12-15T01:39:19.782Z,2.46
2022-12-15T01:40:46.302Z,2.34
2022-12-15T01:42:10.666Z,2.37
2022-12-15T01:43:33.567Z,2.45
2022-12-15T01:45:14.187Z,2.46
2022-12-15T01:46:34.893Z,2.42
2022-12-15T01:48:16.050Z,2.41
2022-12-15T01:49:36.730Z,2.46
2022-12-15T01:51:10.635Z,2.45
2022-12-15T01:52:31.338Z,2.37
2022-12-15T01:54:04.230Z,2.41
2022-12-15T01:55:28.170Z,2.48
2022-12-15T01:56:50.754Z,2.46
2022-12-15T01:58:13.612Z,2.46
2022-12-15T01:59:38.264Z,2.46
2022-12-15T02:01:01.239Z,2.46
2022-12-15T02:02:24.628Z,2.50
2022-12-15T02:03:46.373Z,2.54
2022-12-15T02:05:07.817Z,2.54
2022-12-15T02:06:29.531Z,2.54
2022-12-15T02:07:50.407Z,2.57
2022-12-15T02:09:11.953Z,2.60
2022-12-15T02:10:54.937Z,2.61
2022-12-15T02:12:21.622Z,2.62
2022-12-15T02:14:01.305Z,2.64
2022-12-15T02:15:27.898Z,2.59
2022-12-15T02:16:57.932Z,2.62
2022-12-15T02:18:37.297Z,2.64
2022-12-15T02:20:16.922Z,2.61
2022-12-15T02:21:42.438Z,2.65
2022-12-15T02:23:09.447Z,2.60
2022-12-15T02:24:39.135Z,2.54
2022-12-15T02:26:18.498Z,2.56
2022-12-15T02:27:57.735Z,2.61
2022-12-15T02:29:24.454Z,2.61
2022-12-15T02:31:18.888Z,2.60
2022-12-15T02:32:43.750Z,2.62
2022-12-15T02:34:27.988Z,2.64
2022-12-15T02:35:54.818Z,2.65
2022-12-15T02:37:15.536Z,2.68
2022-12-15T02:38:37.641Z,2.65
2022-12-15T02:39:58.597Z,2.65
2022-12-15T02:41:51.529Z,2.58
2022-12-15T02:43:12.724Z,2.66
2022-12-15T02:44:39.739Z,2.64
2022-12-15T02:46:01.469Z,2.65
2022-12-15T02:47:22.177Z,2.65
2022-12-15T02:49:02.910Z,2.64
2022-12-15T02:50:23.922Z,2.71
2022-12-15T02:51:47.545Z,2.69
2022-12-15T02:53:20.463Z,2.67
2022-12-15T02:54:44.115Z,2.66
2022-12-15T02:56:07.853Z,2.69
2022-12-15T02:57:43.612Z,2.62
2022-12-15T02:59:11.244Z,2.65
2022-12-15T03:00:37.204Z,2.63
2022-12-15T03:02:02.920Z,2.62
2022-12-15T03:03:25.096Z,2.65
2022-12-15T03:04:47.285Z,2.70
2022-12-15T03:06:09.109Z,2.68
2022-12-15T03:07:29.991Z,2.64
2022-12-15T03:08:50.637Z,2.64
2022-12-15T03:10:13.095Z,2.67
2022-12-15T03:11:34.148Z,2.68
2022-12-15T03:12:54.974Z,2.69
2022-12-15T03:14:15.924Z,2.67
2022-12-15T03:15:36.885Z,2.59
2022-12-15T03:16:57.622Z,2.57
2022-12-15T03:18:18.729Z,2.62
2022-12-15T03:19:39.358Z,2.64
2022-12-15T03:21:00.315Z,2.65
2022-12-15T03:22:21.232Z,2.70
2022-12-15T03:23:42.293Z,2.72
2022-12-15T03:25:03.766Z,2.74
2022-12-15T03:26:24.692Z,2.76
2022-12-15T03:27:46.084Z,2.72
2022-12-15T03:29:06.785Z,2.75
2022-12-15T03:30:27.396Z,2.74
2022-12-15T03:31:50.050Z,2.78
2022-12-15T03:33:11.038Z,2.82
2022-12-15T03:34:32.104Z,2.82
2022-12-15T03:35:52.875Z,2.82
2022-12-15T03:37:13.719Z,2.82
2022-12-15T03:38:34.435Z,2.79
2022-12-15T03:39:54.966Z,2.86
2022-12-15T03:41:15.669Z,2.86
2022-12-15T03:42:48.642Z,2.86
2022-12-15T03:44:09.672Z,2.85
2022-12-15T03:45:30.156Z,2.86
2022-12-15T03:46:50.835Z,2.87
2022-12-15T03:48:11.812Z,2.90
2022-12-15T03:49:32.616Z,2.89
2022-12-15T03:50:53.161Z,2.89
2022-12-15T03:52:13.630Z,2.90
2022-12-15T03:53:34.568Z,2.92
2022-12-15T03:54:55.755Z,2.93
2022-12-15T03:56:17.603Z,2.96
2022-12-15T03:57:38.315Z,2.96
2022-12-15T03:58:59.317Z,2.97
2022-12-15T04:00:20.649Z,2.97
2022-12-15T04:01:45.673Z,2.98
2022-12-15T04:03:07.013Z,3.00
2022-12-15T04:04:27.810Z,3.00
2022-12-15T04:05:48.426Z,2.99
2022-12-15T04:07:09.520Z,2.98
2022-12-15T04:08:30.521Z,2.95
2022-12-15T04:09:51.538Z,3.00
2022-12-15T04:11:12.085Z,3.00
2022-12-15T04:12:32.636Z,3.02
2022-12-15T04:13:53.199Z,3.03
2022-12-15T04:15:14.281Z,3.06
2022-12-15T04:16:35.458Z,3.06
2022-12-15T04:17:56.482Z,3.09
2022-12-15T04:19:35.866Z,3.08
2022-12-15T04:20:56.721Z,3.07
2022-12-15T04:22:18.174Z,3.09
2022-12-15T04:23:39.261Z,3.10
2022-12-15T04:25:18.895Z,3.11
2022-12-15T04:26:58.172Z,3.12
2022-12-15T04:28:37.603Z,3.16
2022-12-15T04:30:16.938Z,3.03
2022-12-15T04:31:56.598Z,3.04
2022-12-15T04:33:36.459Z,3.04
2022-12-15T04:35:16.017Z,3.07
2022-12-15T04:36:56.993Z,3.00
2022-12-15T04:38:36.213Z,3.05
2022-12-15T04:40:15.560Z,2.98
2022-12-15T04:41:54.857Z,2.94
2022-12-15T04:43:34.472Z,2.96
2022-12-15T04:45:20.849Z,2.94
2022-12-15T04:47:00.676Z,2.99
2022-12-15T04:48:40.093Z,2.98
2022-12-15T04:50:19.386Z,3.02
2022-12-15T04:51:58.484Z,3.04
2022-12-15T04:53:38.542Z,3.02
2022-12-15T04:55:17.675Z,3.09
2022-12-15T04:56:56.890Z,3.13
2022-12-15T04:58:36.377Z,3.13
2022-12-15T05:00:15.749Z,3.15
2022-12-15T05:01:55.362Z,3.14
2022-12-15T05:03:35.313Z,3.14
2022-12-15T05:05:14.921Z,3.06
2022-12-15T05:06:54.328Z,3.09
2022-12-15T05:08:33.887Z,3.10
2022-12-15T05:10:15.359Z,3.02
2022-12-15T05:11:54.912Z,3.08
2022-12-15T05:13:34.681Z,3.13
2022-12-15T05:15:14.147Z,3.08
2022-12-15T05:16:53.387Z,3.01
2022-12-15T05:18:32.389Z,3.04
2022-12-15T05:20:12.107Z,3.09
2022-12-15T05:21:51.293Z,3.11
2022-12-15T05:23:31.282Z,3.11
2022-12-15T05:25:11.171Z,3.00
2022-12-15T05:26:52.912Z,2.96
2022-12-15T05:28:32.570Z,2.99
2022-12-15T05:30:12.242Z,3.01
2022-12-15T05:31:51.734Z,2.84
2022-12-15T05:33:12.558Z,2.88
2022-12-15T05:34:34.376Z,2.91
2022-12-15T05:35:58.289Z,2.95
2022-12-15T05:37:19.279Z,2.98
2022-12-15T05:38:40.068Z,2.98
2022-12-15T05:40:00.791Z,3.02
2022-12-15T05:41:21.768Z,3.06
2022-12-15T05:42:42.430Z,3.09
2022-12-15T05:44:03.229Z,3.11
2022-12-15T05:45:24.266Z,3.06
2022-12-15T05:46:45.170Z,3.04
2022-12-15T05:48:06.321Z,3.09
2022-12-15T05:49:27.275Z,3.14
2022-12-15T05:50:48.145Z,3.18
2022-12-15T05:52:10.402Z,3.22
2022-12-15T05:53:31.603Z,3.23
2022-12-15T05:54:52.447Z,3.20
2022-12-15T05:56:14.431Z,3.20
2022-12-15T05:57:35.460Z,3.22
2022-12-15T05:58:57.177Z,3.25
2022-12-15T06:00:18.327Z,3.23
2022-12-15T06:01:39.857Z,3.27
2022-12-15T06:03:00.924Z,3.26
2022-12-15T06:04:21.806Z,3.27
2022-12-15T06:05:43.153Z,3.32
2022-12-15T06:07:03.769Z,3.34
2022-12-15T06:08:24.404Z,3.35
2022-12-15T06:09:45.613Z,3.41
2022-12-15T06:11:07.079Z,3.42
2022-12-15T06:12:28.425Z,3.42
2022-12-15T06:13:49.750Z,3.46
2022-12-15T06:15:10.472Z,3.47
2022-12-15T06:16:31.770Z,3.51
2022-12-15T06:17:54.008Z,3.51
2022-12-15T06:19:14.665Z,3.53
2022-12-15T06:20:35.405Z,3.50
2022-12-15T06:21:56.330Z,3.54
2022-12-15T06:23:17.170Z,3.54
2022-12-15T06:24:38.366Z,3.58
2022-12-15T06:25:59.806Z,3.61
2022-12-15T06:27:20.565Z,3.65
2022-12-15T06:28:41.309Z,3.67
2022-12-15T06:30:02.021Z,3.67
2022-12-15T06:31:23.088Z,3.67
2022-12-15T06:32:44.397Z,3.65
2022-12-15T06:34:06.573Z,3.72
2022-12-15T06:35:27.523Z,3.73
2022-12-15T06:36:48.204Z,3.64
2022-12-15T06:38:08.822Z,3.68
2022-12-15T06:39:29.477Z,3.72
2022-12-15T06:40:56.980Z,3.73
2022-12-15T06:42:17.784Z,3.71
2022-12-15T06:43:38.677Z,3.78
2022-12-15T06:44:59.542Z,3.81
2022-12-15T06:46:20.547Z,3.88
2022-12-15T06:47:41.281Z,3.92
2022-12-15T06:49:02.416Z,3.97
2022-12-15T06:50:23.279Z,4.00
2022-12-15T06:51:45.107Z,4.03
2022-12-15T06:53:06.325Z,4.09
2022-12-15T06:54:28.203Z,4.11
2022-12-15T06:55:49.140Z,4.19
2022-12-15T06:57:09.652Z,4.21
2022-12-15T06:58:30.624Z,4.26
2022-12-15T06:59:51.436Z,4.25
2022-12-15T07:01:12.092Z,4.30
2022-12-15T07:02:33.165Z,4.37
2022-12-15T07:03:54.192Z,4.43
2022-12-15T07:05:15.391Z,4.51
2022-12-15T07:06:37.572Z,4.73
2022-12-15T07:07:58.399Z,5.18
2022-12-15T07:09:19.161Z,5.23
2022-12-15T07:10:40.401Z,4.92
2022-12-15T07:12:01.273Z,4.94
2022-12-15T07:13:22.169Z,5.20
2022-12-15T07:14:43.114Z,5.28
2022-12-15T07:16:05.600Z,5.11
2022-12-15T07:17:26.195Z,5.14
2022-12-15T07:18:47.063Z,5.32
2022-12-15T07:20:08.212Z,5.50
2022-12-15T07:21:29.311Z,5.41
2022-12-15T07:22:50.549Z,5.55
2022-12-15T07:24:12.824Z,5.47
2022-12-15T07:25:35.145Z,6.03
2022-12-15T07:26:56.148Z,5.97
2022-12-15T07:28:20.040Z,5.88
2022-12-15T07:29:44.649Z,6.12
2022-12-15T07:31:06.617Z,6.58
2022-12-15T07:32:27.778Z,6.34
2022-12-15T07:33:48.686Z,6.61
2022-12-15T07:35:09.446Z,8.66
2022-12-15T07:36:30.163Z,12.27
2022-12-15T07:37:51.208Z,11.85
2022-12-15T07:39:11.837Z,9.59
2022-12-15T07:40:32.566Z,10.26
2022-12-15T07:41:53.389Z,9.85
2022-12-15T07:43:14.433Z,8.76
2022-12-15T07:44:34.971Z,8.31
2022-12-15T07:45:55.865Z,7.67
2022-12-15T07:47:16.631Z,7.23
2022-12-15T07:48:37.253Z,7.39
2022-12-15T07:49:58.117Z,7.42
2022-12-15T07:51:22.790Z,7.53
2022-12-15T07:52:43.762Z,8.15
2022-12-15T07:54:04.689Z,7.88
2022-12-15T07:55:50.054Z,8.27
2022-12-15T07:57:09.947Z,9.09
2022-12-15T07:58:30.478Z,9.29
2022-12-15T07:59:51.512Z,9.13
2022-12-15T08:01:13.328Z,8.91
2022-12-15T08:02:34.370Z,9.19
2022-12-15T08:03:55.624Z,9.35
2022-12-15T08:05:16.371Z,10.06
2022-12-15T08:06:37.062Z,9.11
2022-12-15T08:07:58.715Z,8.67
2022-12-15T08:09:19.662Z,8.58
2022-12-15T08:10:40.762Z,8.36
2022-12-15T08:12:02.459Z,8.33
2022-12-15T08:13:52.895Z,8.14
2022-12-15T08:15:04.341Z,8.10
2022-12-15T08:16:25.964Z,8.07
2022-12-15T08:17:47.072Z,8.27
2022-12-15T08:19:10.733Z,8.33
2022-12-15T08:20:32.194Z,8.21
2022-12-15T08:21:53.056Z,8.22
2022-12-15T08:23:14.116Z,8.11
2022-12-15T08:24:34.807Z,8.09
2022-12-15T08:25:55.377Z,8.03
2022-12-15T08:27:16.274Z,7.83
2022-12-15T08:28:38.254Z,7.84
2022-12-15T08:29:59.387Z,7.70
2022-12-15T08:31:20.910Z,7.54
2022-12-15T08:32:45.005Z,7.50
2022-12-15T08:34:12.769Z,7.35
2022-12-15T08:35:55.790Z,7.21
2022-12-15T08:37:15.029Z,7.22
2022-12-15T08:38:36.688Z,7.38
2022-12-15T08:39:57.261Z,7.53
2022-12-15T08:41:21.277Z,7.84
2022-12-15T08:42:41.992Z,7.74
2022-12-15T08:44:03.174Z,7.65
2022-12-15T08:45:23.914Z,7.59
2022-12-15T08:46:44.729Z,7.70
2022-12-15T08:48:05.605Z,7.62
2022-12-15T08:49:26.344Z,7.67
2022-12-15T08:50:47.300Z,7.70
2022-12-15T08:52:08.404Z,7.77
2022-12-15T08:53:31.897Z,7.53
2022-12-15T08:54:53.630Z,7.36
2022-12-15T08:56:16.108Z,7.35
2022-12-15T08:57:37.475Z,7.24
2022-12-15T08:58:59.724Z,7.18
2022-12-15T09:00:20.746Z,7.23
2022-12-15T09:01:41.939Z,7.29
2022-12-15T09:03:03.135Z,7.18
2022-12-15T09:04:24.192Z,7.12
2022-12-15T09:05:45.105Z,6.97
2022-12-15T09:07:05.754Z,7.00
2022-12-15T09:08:26.592Z,6.98
2022-12-15T09:09:47.150Z,7.00
2022-12-15T09:11:08.152Z,6.84
2022-12-15T09:12:29.153Z,6.87
2022-12-15T09:13:50.300Z,6.86
2022-12-15T09:15:11.278Z,6.74
2022-12-15T09:16:32.601Z,6.70
2022-12-15T09:17:53.576Z,6.79
2022-12-15T09:19:14.599Z,6.76
2022-12-15T09:20:35.176Z,6.86
2022-12-15T09:21:55.896Z,6.83
2022-12-15T09:23:16.771Z,6.89
2022-12-15T09:24:37.400Z,6.91
2022-12-15T09:26:06.495Z,6.88
2022-12-15T09:27:28.993Z,6.96
2022-12-15T09:28:51.136Z,6.93
2022-12-15T09:30:12.189Z,7.00
2022-12-15T09:31:36.237Z,6.96
2022-12-15T09:32:57.173Z,6.98
2022-12-15T09:34:17.802Z,6.86
2022-12-15T09:35:38.426Z,6.88
2022-12-15T09:36:59.077Z,6.86
2022-12-15T09:38:19.961Z,6.77
2022-12-15T09:39:40.602Z,6.78
2022-12-15T09:41:09.227Z,6.83
2022-12-15T09:42:30.530Z,6.90
2022-12-15T09:43:58.238Z,6.93
2022-12-15T09:45:24.069Z,7.08
2022-12-15T09:46:55.859Z,7.16
2022-12-15T09:48:19.597Z,7.23
2022-12-15T09:49:43.434Z,7.26
2022-12-15T09:51:04.958Z,7.37
2022-12-15T09:52:27.551Z,7.45
2022-12-15T09:53:56.592Z,7.61
2022-12-15T09:55:20.667Z,7.59
2022-12-15T09:56:50.276Z,7.65
2022-12-15T09:58:14.213Z,7.78
2022-12-15T09:59:34.800Z,7.84
2022-12-15T10:00:55.932Z,7.73
2022-12-15T10:02:19.515Z,7.85
2022-12-15T10:03:59.530Z,7.87
2022-12-15T10:07:34.710Z,8.13
2022-12-15T10:09:02.098Z,8.19
2022-12-15T10:10:27.183Z,8.28
2022-12-15T10:13:41.173Z,8.68
2022-12-15T10:15:18.299Z,8.87
2022-12-15T10:16:57.547Z,8.88
2022-12-15T10:18:18.229Z,9.04
2022-12-15T10:19:50.128Z,9.28
2022-12-15T10:21:14.765Z,9.32
2022-12-15T10:22:37.364Z,9.35
2022-12-15T10:24:05.231Z,9.32
2022-12-15T10:25:30.500Z,9.38
2022-12-15T10:26:59.272Z,9.31
2022-12-15T10:28:38.184Z,9.36
2022-12-15T10:30:01.594Z,9.24
2022-12-15T10:31:27.795Z,9.04
2022-12-15T10:33:03.775Z,8.98
2022-12-15T10:34:29.023Z,8.96
2022-12-15T10:35:52.654Z,8.82
2022-12-15T10:37:16.376Z,8.79
2022-12-15T10:38:38.152Z,8.71
2022-12-15T10:39:58.845Z,8.77
2022-12-15T10:41:23.933Z,8.77
2022-12-15T10:42:46.851Z,8.75
2022-12-15T10:44:31.872Z,8.84
2022-12-15T10:46:02.643Z,8.97
2022-12-15T10:47:26.110Z,8.89
2022-12-15T10:49:10.136Z,8.86
2022-12-15T10:50:30.845Z,8.78
2022-12-15T10:51:54.789Z,8.72
2022-12-15T10:53:38.024Z,8.59
2022-12-15T10:54:59.240Z,8.55
2022-12-15T10:56:24.755Z,8.65
2022-12-15T10:57:58.152Z,8.67
2022-12-15T10:59:28.843Z,8.80
2022-12-15T11:01:05.223Z,8.88
2022-12-15T11:02:33.519Z,8.81
2022-12-15T11:03:55.333Z,8.80
2022-12-15T11:05:17.167Z,8.78
2022-12-15T11:06:41.599Z,8.75
2022-12-15T11:08:14.315Z,8.79
2022-12-15T11:09:35.404Z,8.73
2022-12-15T11:11:16.424Z,8.68
2022-12-15T11:13:03.414Z,8.74
2022-12-15T11:14:28.270Z,8.80
2022-12-15T11:15:53.418Z,8.81
2022-12-15T11:17:25.310Z,8.76
2022-12-15T11:19:08.036Z,8.58
2022-12-15T11:20:32.636Z,8.73
2022-12-15T11:21:59.896Z,8.76
2022-12-15T11:23:32.607Z,8.66
2022-12-15T11:24:58.296Z,8.61
2022-12-15T11:26:40.367Z,8.68
2022-12-15T11:28:04.536Z,8.77
2022-12-15T11:29:28.445Z,8.79
2022-12-15T11:30:56.569Z,8.87
2022-12-15T11:32:21.242Z,8.94
2022-12-15T11:33:42.038Z,8.90
2022-12-15T11:35:03.051Z,9.02
2022-12-15T11:36:24.103Z,9.06
2022-12-15T11:38:05.995Z,9.14
2022-12-15T11:39:36.041Z,9.06
2022-12-15T11:40:58.605Z,9.10
2022-12-15T11:42:24.716Z,9.06
2022-12-15T11:44:01.045Z,9.02
2022-12-15T11:45:25.218Z,9.13
2022-12-15T11:47:07.185Z,9.07
2022-12-15T11:48:35.557Z,9.10
2022-12-15T11:50:04.837Z,8.96
2022-12-15T11:51:32.784Z,8.98
2022-12-15T11:52:56.592Z,9.02
2022-12-15T11:54:37.511Z,9.07
2022-12-15T11:56:10.358Z,9.07
2022-12-15T11:57:31.091Z,9.08
2022-12-15T11:59:00.637Z,9.02
2022-12-15T12:00:22.142Z,9.05
2022-12-15T12:02:00.742Z,9.04
2022-12-15T12:03:36.202Z,9.08
2022-12-15T12:05:15.565Z,8.96
2022-12-15T12:06:55.180Z,8.82
2022-12-15T12:08:22.130Z,8.81
2022-12-15T12:09:49.215Z,8.97
2022-12-15T12:11:10.796Z,8.98
2022-12-15T12:12:41.442Z,8.99
2022-12-15T12:14:09.695Z,8.94
2022-12-15T12:15:52.663Z,8.80
2022-12-15T12:17:36.728Z,8.85
2022-12-15T12:19:03.764Z,8.86
2022-12-15T12:20:40.821Z,8.79
2022-12-15T12:22:07.487Z,8.92
2022-12-15T12:23:34.683Z,8.89
2022-12-15T12:25:15.728Z,8.93
2022-12-15T12:26:48.623Z,8.97
2022-12-15T12:28:17.798Z,8.96
2022-12-15T12:29:43.180Z,8.94
2022-12-15T12:31:05.787Z,8.96
2022-12-15T12:32:45.554Z,8.90
2022-12-15T12:34:14.139Z,8.94
2022-12-15T12:35:38.296Z,8.99
2022-12-15T12:37:34.861Z,8.99
2022-12-15T12:38:56.812Z,8.96
2022-12-15T12:40:32.766Z,8.96
2022-12-15T12:42:19.680Z,9.02
2022-12-15T12:43:43.571Z,9.11
2022-12-15T12:45:04.701Z,9.12
2022-12-15T12:46:33.011Z,9.15
2022-12-15T12:47:56.150Z,9.18
2022-12-15T12:49:26.617Z,9.10
2022-12-15T12:50:47.909Z,9.06
2022-12-15T12:52:23.819Z,9.02
2022-12-15T12:53:44.978Z,8.97
2022-12-15T12:55:14.457Z,8.99
2022-12-15T12:56:40.806Z,8.94
2022-12-15T12:58:01.598Z,9.00
2022-12-15T12:59:33.961Z,9.00
2022-12-15T13:01:13.653Z,8.86
2022-12-15T13:02:40.676Z,8.90
2022-12-15T13:04:10.018Z,8.88
2022-12-15T13:05:31.462Z,8.87
2022-12-15T13:06:55.444Z,8.89
2022-12-15T13:08:17.868Z,8.83
2022-12-15T13:09:38.846Z,8.85
2022-12-15T13:11:19.620Z,8.79
2022-12-15T13:12:51.628Z,8.79
2022-12-15T13:14:21.063Z,8.81
2022-12-15T13:17:29.374Z,8.75
2022-12-15T13:18:56.201Z,8.75
2022-12-15T13:20:35.742Z,8.76
2022-12-15T13:21:56.528Z,8.69
2022-12-15T13:23:20.130Z,8.60
2022-12-15T13:24:41.950Z,8.58
2022-12-15T13:26:12.082Z,8.58
2022-12-15T13:27:37.319Z,8.56
2022-12-15T13:28:58.280Z,8.51
2022-12-15T13:30:19.266Z,8.49
2022-12-15T13:31:44.251Z,8.46
2022-12-15T13:33:16.536Z,8.45
2022-12-15T13:34:41.007Z,8.38
2022-12-15T13:36:01.746Z,8.38
2022-12-15T13:37:41.411Z,8.33
2022-12-15T13:39:12.464Z,8.32
2022-12-15T13:40:36.286Z,8.27
2022-12-15T13:43:46.415Z,8.19
2022-12-15T13:45:21.166Z,8.08
2022-12-15T13:46:44.931Z,8.05
2022-12-15T13:48:07.697Z,7.98
2022-12-15T13:49:28.606Z,8.05
2022-12-15T13:50:55.656Z,8.01
2022-12-15T13:53:16.585Z,8.00
2022-12-15T13:54:25.114Z,7.94
2022-12-15T13:56:06.499Z,7.98
2022-12-15T13:57:30.169Z,7.94
2022-12-15T13:58:56.288Z,7.95
2022-12-15T14:00:18.761Z,7.94
2022-12-15T14:01:48.222Z,7.93
2022-12-15T14:03:12.295Z,7.95
2022-12-15T14:04:33.024Z,7.95
2022-12-15T14:05:55.435Z,7.99
2022-12-15T14:07:17.011Z,7.97
2022-12-15T14:08:37.807Z,7.92
2022-12-15T14:09:58.769Z,7.90
2022-12-15T14:11:51.223Z,7.91
2022-12-15T14:13:16.113Z,7.88
2022-12-15T14:14:42.594Z,7.84
2022-12-15T14:16:07.155Z,7.83
2022-12-15T14:17:32.816Z,7.76
2022-12-15T14:19:22.845Z,7.73
2022-12-15T14:20:43.750Z,7.66
2022-12-15T14:22:21.794Z,7.66
2022-12-15T14:25:29.828Z,7.56
2022-12-15T14:26:51.193Z,7.55
2022-12-15T14:28:24.792Z,7.54
2022-12-15T14:29:45.726Z,7.53
2022-12-15T14:31:17.158Z,7.49
2022-12-15T14:32:38.630Z,7.48
2022-12-15T14:34:29.356Z,7.39
2022-12-15T14:35:51.596Z,7.32
2022-12-15T14:37:15.912Z,7.28
2022-12-15T14:38:39.607Z,7.28
2022-12-15T14:40:00.782Z,7.26
2022-12-15T14:41:23.837Z,7.24
2022-12-15T14:42:45.918Z,7.21
2022-12-15T14:44:38.059Z,7.22
2022-12-15T14:46:19.892Z,7.20
2022-12-15T14:47:40.790Z,7.16
2022-12-15T14:49:04.570Z,7.19
2022-12-15T14:50:25.748Z,7.22
2022-12-15T14:51:48.643Z,7.20
2022-12-15T14:53:15.423Z,7.20
2022-12-15T14:54:39.778Z,7.17
2022-12-15T14:56:13.555Z,7.23
2022-12-15T14:57:46.628Z,7.28
2022-12-15T14:59:20.345Z,7.29
2022-12-15T15:00:52.109Z,7.32
2022-12-15T15:02:13.031Z,7.31
2022-12-15T15:03:03.660Z,7.97
2022-12-15T15:03:10.415Z,8.45
2022-12-15T15:03:13.041Z,8.76
2022-12-15T15:03:39.105Z,7.34
2022-12-15T15:05:07.776Z,7.36
2022-12-15T15:06:30.402Z,7.38
2022-12-15T15:07:55.606Z,7.43
2022-12-15T15:09:23.295Z,7.43
2022-12-15T15:10:46.939Z,7.46
2022-12-15T15:12:09.281Z,7.48
2022-12-15T15:13:39.778Z,7.51
2022-12-15T15:15:03.119Z,7.51
2022-12-15T15:16:25.154Z,7.52
2022-12-15T15:17:53.777Z,7.53
2022-12-15T15:19:18.553Z,7.51
2022-12-15T15:20:39.547Z,7.54
2022-12-15T15:22:01.541Z,7.56
2022-12-15T15:23:22.333Z,7.53
2022-12-15T15:24:50.325Z,7.58
2022-12-15T15:26:11.496Z,7.59
2022-12-15T15:27:32.915Z,7.61
2022-12-15T15:28:53.930Z,7.58
2022-12-15T15:30:14.737Z,7.59
2022-12-15T15:31:41.487Z,7.58
2022-12-15T15:33:03.125Z,7.58
2022-12-15T15:34:23.778Z,7.56
2022-12-15T15:35:48.967Z,7.58
2022-12-15T15:37:20.315Z,7.57
2022-12-15T15:38:42.155Z,7.61
2022-12-15T15:40:02.864Z,7.63
2022-12-15T15:41:29.885Z,7.63
2022-12-15T15:42:50.855Z,7.62
2022-12-15T15:44:13.603Z,7.61
2022-12-15T15:45:34.411Z,7.56
2022-12-15T15:46:55.524Z,7.56
2022-12-15T15:48:19.580Z,7.58
2022-12-15T15:49:40.494Z,7.56
2022-12-15T15:51:02.225Z,7.59
2022-12-15T15:52:23.291Z,7.59
2022-12-15T15:53:44.993Z,7.62
2022-12-15T15:55:06.000Z,7.65
2022-12-15T15:56:27.543Z,7.65
2022-12-15T15:57:48.308Z,7.66
2022-12-15T15:59:13.707Z,7.68
2022-12-15T16:00:34.749Z,7.69
2022-12-15T16:01:56.281Z,7.71
2022-12-15T16:03:17.200Z,7.71
2022-12-15T16:04:40.667Z,7.71
2022-12-15T16:06:02.360Z,7.68
2022-12-15T16:07:25.542Z,7.69
2022-12-15T16:08:47.396Z,7.71
2022-12-15T16:10:15.441Z,7.72
2022-12-15T16:11:36.597Z,7.71
2022-12-15T16:12:58.453Z,7.68
2022-12-15T16:14:19.147Z,7.66
2022-12-15T16:15:40.022Z,7.69
2022-12-15T16:17:01.140Z,7.69
2022-12-15T16:18:21.686Z,7.70
2022-12-15T16:19:42.415Z,7.63
2022-12-15T16:21:03.051Z,7.61
2022-12-15T16:22:24.360Z,7.57
2022-12-15T16:23:46.236Z,7.61
2022-12-15T16:25:12.467Z,7.59
2022-12-15T16:26:33.998Z,7.56
2022-12-15T16:27:54.622Z,7.60
2022-12-15T16:29:16.660Z,7.57
2022-12-15T16:30:37.320Z,7.56
2022-12-15T16:31:58.182Z,7.58
2022-12-15T16:33:19.469Z,7.57
2022-12-15T16:34:41.849Z,7.59
2022-12-15T16:36:02.941Z,7.57
2022-12-15T16:37:27.630Z,7.61
2022-12-15T16:38:48.455Z,7.59
2022-12-15T16:40:14.290Z,7.61
2022-12-15T16:41:35.127Z,7.64
2022-12-15T16:42:57.646Z,7.66
2022-12-15T16:44:18.619Z,7.66
2022-12-15T16:45:42.234Z,7.65
2022-12-15T16:47:02.961Z,7.68
2022-12-15T16:48:23.966Z,7.69
2022-12-15T16:49:45.326Z,7.70
2022-12-15T16:51:06.940Z,7.67
2022-12-15T16:52:27.755Z,7.66
2022-12-15T16:53:48.919Z,7.62
2022-12-15T16:55:32.673Z,7.57
2022-12-15T16:56:57.329Z,7.55
2022-12-15T16:58:19.126Z,7.52
2022-12-15T16:59:39.967Z,7.50
2022-12-15T17:01:00.547Z,7.42
2022-12-15T17:02:28.927Z,7.40
2022-12-15T17:03:50.281Z,7.36
2022-12-15T17:05:11.138Z,7.36
2022-12-15T17:06:32.273Z,7.36
2022-12-15T17:07:55.434Z,7.35
2022-12-15T17:09:21.990Z,7.30
2022-12-15T17:10:43.804Z,7.35
2022-12-15T17:12:05.207Z,7.30
2022-12-15T17:13:40.526Z,7.21
2022-12-15T17:15:12.000Z,7.29
2022-12-15T17:16:32.984Z,7.29
2022-12-15T17:17:54.868Z,7.18
2022-12-15T17:19:20.920Z,7.11
2022-12-15T17:20:42.553Z,7.15
2022-12-15T17:22:03.562Z,7.13
2022-12-15T17:23:24.508Z,7.15
2022-12-15T17:24:49.275Z,7.19
2022-12-15T17:26:29.940Z,7.16
2022-12-15T17:27:51.933Z,7.15
2022-12-15T17:29:16.185Z,7.13
2022-12-15T17:30:36.783Z,7.18
2022-12-15T17:31:57.422Z,7.18
2022-12-15T17:33:26.062Z,7.17
2022-12-15T17:34:47.731Z,7.20
2022-12-15T17:36:14.792Z,7.21
2022-12-15T17:37:37.596Z,7.22
2022-12-15T17:39:02.219Z,7.21
2022-12-15T17:40:23.943Z,7.24
2022-12-15T17:42:01.783Z,7.26
2022-12-15T17:43:24.287Z,7.28
2022-12-15T17:44:46.776Z,7.29
2022-12-15T17:46:07.750Z,7.32
2022-12-15T17:47:30.583Z,7.32
2022-12-15T17:48:51.706Z,7.30
2022-12-15T17:50:12.993Z,7.28
2022-12-15T17:51:34.290Z,7.31
2022-12-15T17:52:55.113Z,7.30
2022-12-15T17:54:17.402Z,7.30
2022-12-15T17:55:38.321Z,7.30
2022-12-15T17:56:59.121Z,7.31
2022-12-15T17:58:21.393Z,7.29
2022-12-15T17:59:42.065Z,7.29
2022-12-15T18:01:02.687Z,7.25
2022-12-15T18:02:23.665Z,7.22
2022-12-15T18:03:44.629Z,7.24
2022-12-15T18:05:05.882Z,7.24
2022-12-15T18:06:26.954Z,7.21
2022-12-15T18:07:49.919Z,7.19
2022-12-15T18:09:15.258Z,7.19
2022-12-15T18:10:40.608Z,7.23
2022-12-15T18:12:01.261Z,7.21
2022-12-15T18:13:23.922Z,7.13
2022-12-15T18:14:44.671Z,7.12
2022-12-15T18:16:05.873Z,7.16
2022-12-15T18:17:26.817Z,7.12
2022-12-15T18:18:47.941Z,7.13
2022-12-15T18:20:09.042Z,7.12
2022-12-15T18:21:29.708Z,7.09
2022-12-15T18:22:51.052Z,7.09
2022-12-15T18:24:13.313Z,7.02
2022-12-15T18:25:34.289Z,7.00
2022-12-15T18:26:56.078Z,7.05
2022-12-15T18:28:20.844Z,7.03
2022-12-15T18:29:42.008Z,6.98
2022-12-15T18:31:21.544Z,6.90
2022-12-15T18:32:42.363Z,6.91
2022-12-15T18:34:04.997Z,6.93
2022-12-15T18:35:37.802Z,6.88
2022-12-15T18:36:58.511Z,6.93
2022-12-15T18:38:19.207Z,6.91
2022-12-15T18:39:39.937Z,6.91
2022-12-15T18:41:02.733Z,6.89
2022-12-15T18:42:23.434Z,6.85
2022-12-15T18:43:45.213Z,6.89
2022-12-15T18:45:14.069Z,6.82
2022-12-15T18:46:36.187Z,6.86
2022-12-15T18:47:56.915Z,6.88
2022-12-15T18:49:18.243Z,6.89
2022-12-15T18:50:39.793Z,6.90
2022-12-15T18:52:01.056Z,6.93
2022-12-15T18:53:35.463Z,6.96
2022-12-15T18:54:56.596Z,7.01
2022-12-15T18:56:19.457Z,6.97
2022-12-15T18:57:40.831Z,6.94
2022-12-15T18:59:01.822Z,6.96
2022-12-15T19:00:27.716Z,6.98
2022-12-15T19:01:49.026Z,6.94
2022-12-15T19:03:09.951Z,6.95
2022-12-15T19:04:30.995Z,6.95
2022-12-15T19:06:14.874Z,6.96
2022-12-15T19:07:35.954Z,6.97
2022-12-15T19:08:57.037Z,6.94
2022-12-15T19:10:17.819Z,6.94
2022-12-15T19:11:38.707Z,6.95
2022-12-15T19:12:59.498Z,6.96